sensor_id;sensor_type;location;lat;lon;timestamp;pressure;altitude;pressure_sealevel;temperature;humidity
61488;BME280;47351;53.326;-6.298;2022-11-21T00:01:42;99942.48;;;7.52;78.64
61488;BME280;47351;53.326;-6.298;2022-11-21T00:04:36;99925.52;;;7.56;78.61
61488;BME280;47351;53.326;-6.298;2022-11-21T00:07:27;99913.50;;;7.61;78.58
61488;BME280;47351;53.326;-6.298;2022-11-21T00:10:17;99905.55;;;7.64;78.57
61488;BME280;47351;53.326;-6.298;2022-11-21T00:13:10;99889.05;;;7.65;78.51
61488;BME280;47351;53.326;-6.298;2022-11-21T00:16:04;99874.19;;;7.70;78.71
61488;BME280;47351;53.326;-6.298;2022-11-21T00:18:54;99862.56;;;7.76;78.74
61488;BME280;47351;53.326;-6.298;2022-11-21T00:21:44;99857.32;;;7.78;78.50
61488;BME280;47351;53.326;-6.298;2022-11-21T00:24:37;99851.10;;;7.78;78.57
61488;BME280;47351;53.326;-6.298;2022-11-21T00:27:27;99842.56;;;7.84;78.99
61488;BME280;47351;53.326;-6.298;2022-11-21T00:30:17;99836.17;;;7.88;78.91
61488;BME280;47351;53.326;-6.298;2022-11-21T00:33:07;99826.34;;;7.91;78.94
61488;BME280;47351;53.326;-6.298;2022-11-21T00:36:06;99817.58;;;7.95;78.77
61488;BME280;47351;53.326;-6.298;2022-11-21T00:38:56;99808.64;;;7.97;78.62
61488;BME280;47351;53.326;-6.298;2022-11-21T00:41:46;99803.80;;;8.02;78.63
61488;BME280;47351;53.326;-6.298;2022-11-21T00:44:36;99779.27;;;8.07;78.46
61488;BME280;47351;53.326;-6.298;2022-11-21T00:47:28;99763.82;;;8.11;78.25
61488;BME280;47351;53.326;-6.298;2022-11-21T00:50:18;99757.45;;;8.12;78.15
61488;BME280;47351;53.326;-6.298;2022-11-21T00:53:08;99757.27;;;8.10;78.16
61488;BME280;47351;53.326;-6.298;2022-11-21T00:55:59;99750.36;;;8.13;78.60
61488;BME280;47351;53.326;-6.298;2022-11-21T00:58:48;99737.59;;;8.18;78.77
61488;BME280;47351;53.326;-6.298;2022-11-21T01:01:38;99734.06;;;8.21;78.92
61488;BME280;47351;53.326;-6.298;2022-11-21T01:04:46;99724.77;;;8.23;78.79
61488;BME280;47351;53.326;-6.298;2022-11-21T01:08:19;99704.40;;;8.23;79.04
61488;BME280;47351;53.326;-6.298;2022-11-21T01:22:58;99662.73;;;8.25;81.06
61488;BME280;47351;53.326;-6.298;2022-11-21T01:26:27;99647.93;;;8.24;81.17
61488;BME280;47351;53.326;-6.298;2022-11-21T01:34:05;99633.16;;;8.17;82.12
61488;BME280;47351;53.326;-6.298;2022-11-21T01:42:05;99603.17;;;8.12;82.77
61488;BME280;47351;53.326;-6.298;2022-11-21T01:49:17;99565.83;;;8.07;83.46
61488;BME280;47351;53.326;-6.298;2022-11-21T01:52:20;99553.13;;;8.06;83.96
61488;BME280;47351;53.326;-6.298;2022-11-21T01:55:13;99544.30;;;8.07;84.20
61488;BME280;47351;53.326;-6.298;2022-11-21T01:58:03;99541.73;;;8.08;84.39
61488;BME280;47351;53.326;-6.298;2022-11-21T02:00:53;99531.02;;;8.07;84.37
61488;BME280;47351;53.326;-6.298;2022-11-21T02:03:44;99519.42;;;8.05;84.33
61488;BME280;47351;53.326;-6.298;2022-11-21T02:06:35;99495.39;;;8.02;84.46
61488;BME280;47351;53.326;-6.298;2022-11-21T02:09:26;99481.06;;;8.00;84.72
61488;BME280;47351;53.326;-6.298;2022-11-21T02:12:24;99471.61;;;7.97;84.86
61488;BME280;47351;53.326;-6.298;2022-11-21T02:15:15;99456.98;;;7.94;84.88
61488;BME280;47351;53.326;-6.298;2022-11-21T02:18:08;99440.44;;;7.93;84.96
61488;BME280;47351;53.326;-6.298;2022-11-21T02:21:04;99436.66;;;7.90;85.16
61488;BME280;47351;53.326;-6.298;2022-11-21T02:24:01;99428.14;;;7.88;85.11
61488;BME280;47351;53.326;-6.298;2022-11-21T02:26:53;99422.86;;;7.88;85.45
61488;BME280;47351;53.326;-6.298;2022-11-21T02:29:43;99411.25;;;7.88;85.76
61488;BME280;47351;53.326;-6.298;2022-11-21T02:32:35;99393.33;;;7.88;85.86
61488;BME280;47351;53.326;-6.298;2022-11-21T02:35:26;99381.16;;;7.89;85.97
61488;BME280;47351;53.326;-6.298;2022-11-21T02:38:18;99363.59;;;7.89;85.95
61488;BME280;47351;53.326;-6.298;2022-11-21T02:41:13;99357.27;;;7.88;86.11
61488;BME280;47351;53.326;-6.298;2022-11-21T02:44:08;99357.80;;;7.88;86.25
61488;BME280;47351;53.326;-6.298;2022-11-21T02:47:01;99369.32;;;7.88;86.41
61488;BME280;47351;53.326;-6.298;2022-11-21T02:49:57;99360.09;;;7.88;86.49
61488;BME280;47351;53.326;-6.298;2022-11-21T02:52:48;99355.62;;;7.87;86.40
61488;BME280;47351;53.326;-6.298;2022-11-21T02:55:38;99369.06;;;7.86;86.54
61488;BME280;47351;53.326;-6.298;2022-11-21T02:58:28;99372.36;;;7.85;86.53
61488;BME280;47351;53.326;-6.298;2022-11-21T03:01:18;99363.34;;;7.83;86.65
61488;BME280;47351;53.326;-6.298;2022-11-21T03:04:08;99347.98;;;7.80;86.71
61488;BME280;47351;53.326;-6.298;2022-11-21T03:06:57;99335.92;;;7.79;86.78
61488;BME280;47351;53.326;-6.298;2022-11-21T03:09:48;99326.00;;;7.77;86.84
61488;BME280;47351;53.326;-6.298;2022-11-21T03:12:39;99312.83;;;7.76;86.99
61488;BME280;47351;53.326;-6.298;2022-11-21T03:15:31;99300.60;;;7.76;87.28
61488;BME280;47351;53.326;-6.298;2022-11-21T03:18:20;99281.14;;;7.78;87.60
61488;BME280;47351;53.326;-6.298;2022-11-21T03:21:10;99273.05;;;7.83;87.71
61488;BME280;47351;53.326;-6.298;2022-11-21T03:24:00;99251.41;;;7.85;87.43
61488;BME280;47351;53.326;-6.298;2022-11-21T03:26:51;99240.88;;;7.85;87.32
61488;BME280;47351;53.326;-6.298;2022-11-21T03:29:41;99230.02;;;7.86;87.46
61488;BME280;47351;53.326;-6.298;2022-11-21T03:32:31;99221.80;;;7.87;87.83
61488;BME280;47351;53.326;-6.298;2022-11-21T03:35:21;99211.37;;;7.92;88.18
61488;BME280;47351;53.326;-6.298;2022-11-21T03:38:10;99193.81;;;7.95;88.33
61488;BME280;47351;53.326;-6.298;2022-11-21T03:41:03;99172.27;;;7.98;88.57
61488;BME280;47351;53.326;-6.298;2022-11-21T03:43:53;99154.83;;;8.03;88.81
61488;BME280;47351;53.326;-6.298;2022-11-21T03:46:44;99127.31;;;8.06;88.70
61488;BME280;47351;53.326;-6.298;2022-11-21T03:49:35;99100.73;;;8.08;88.88
61488;BME280;47351;53.326;-6.298;2022-11-21T03:52:25;99082.49;;;8.13;89.22
61488;BME280;47351;53.326;-6.298;2022-11-21T03:55:18;99063.93;;;8.20;89.65
61488;BME280;47351;53.326;-6.298;2022-11-21T03:58:07;99052.89;;;8.31;90.26
61488;BME280;47351;53.326;-6.298;2022-11-21T04:00:59;99047.16;;;8.43;90.47
61488;BME280;47351;53.326;-6.298;2022-11-21T04:03:52;99042.73;;;8.55;90.52
61488;BME280;47351;53.326;-6.298;2022-11-21T04:06:47;99042.03;;;8.65;90.21
61488;BME280;47351;53.326;-6.298;2022-11-21T04:09:39;99043.45;;;8.72;89.96
61488;BME280;47351;53.326;-6.298;2022-11-21T04:12:28;99035.31;;;8.79;89.91
61488;BME280;47351;53.326;-6.298;2022-11-21T04:15:18;99030.59;;;8.83;89.92
61488;BME280;47351;53.326;-6.298;2022-11-21T04:18:14;99022.10;;;8.87;89.98
61488;BME280;47351;53.326;-6.298;2022-11-21T04:21:08;99009.16;;;8.91;90.10
61488;BME280;47351;53.326;-6.298;2022-11-21T04:24:06;98993.06;;;8.93;90.35
61488;BME280;47351;53.326;-6.298;2022-11-21T04:27:01;98987.31;;;8.95;90.36
61488;BME280;47351;53.326;-6.298;2022-11-21T04:30:17;98980.17;;;8.95;90.64
61488;BME280;47351;53.326;-6.298;2022-11-21T04:33:10;98966.23;;;8.96;90.49
61488;BME280;47351;53.326;-6.298;2022-11-21T04:36:04;98955.35;;;8.96;90.67
61488;BME280;47351;53.326;-6.298;2022-11-21T04:38:54;98944.14;;;8.97;91.04
61488;BME280;47351;53.326;-6.298;2022-11-21T04:42:00;98940.01;;;8.99;91.32
61488;BME280;47351;53.326;-6.298;2022-11-21T04:44:51;98932.61;;;8.98;91.22
61488;BME280;47351;53.326;-6.298;2022-11-21T04:47:44;98929.02;;;8.96;91.14
61488;BME280;47351;53.326;-6.298;2022-11-21T04:59:48;98897.29;;;8.89;91.94
61488;BME280;47351;53.326;-6.298;2022-11-21T05:03:25;98894.77;;;8.87;92.05
61488;BME280;47351;53.326;-6.298;2022-11-21T05:06:20;98895.83;;;8.85;92.13
61488;BME280;47351;53.326;-6.298;2022-11-21T05:09:41;98888.66;;;8.83;91.96
61488;BME280;47351;53.326;-6.298;2022-11-21T05:12:38;98877.20;;;8.77;91.70
61488;BME280;47351;53.326;-6.298;2022-11-21T05:15:45;98858.23;;;8.70;91.54
61488;BME280;47351;53.326;-6.298;2022-11-21T05:18:48;98841.66;;;8.59;90.90
61488;BME280;47351;53.326;-6.298;2022-11-21T05:21:38;98834.60;;;8.46;90.52
61488;BME280;47351;53.326;-6.298;2022-11-21T05:24:27;98832.98;;;8.34;90.88
61488;BME280;47351;53.326;-6.298;2022-11-21T05:27:18;98830.33;;;8.27;91.14
61488;BME280;47351;53.326;-6.298;2022-11-21T05:30:11;98824.41;;;8.22;91.54
61488;BME280;47351;53.326;-6.298;2022-11-21T05:33:04;98816.98;;;8.18;92.06
61488;BME280;47351;53.326;-6.298;2022-11-21T05:35:53;98803.80;;;8.16;92.58
61488;BME280;47351;53.326;-6.298;2022-11-21T05:38:43;98796.25;;;8.15;93.59
61488;BME280;47351;53.326;-6.298;2022-11-21T05:41:34;98785.02;;;8.15;93.93
61488;BME280;47351;53.326;-6.298;2022-11-21T05:44:24;98772.96;;;8.15;94.07
61488;BME280;47351;53.326;-6.298;2022-11-21T05:47:14;98768.73;;;8.15;94.33
61488;BME280;47351;53.326;-6.298;2022-11-21T05:50:04;98761.19;;;8.16;94.93
61488;BME280;47351;53.326;-6.298;2022-11-21T05:52:54;98754.17;;;8.16;95.44
61488;BME280;47351;53.326;-6.298;2022-11-21T05:55:44;98747.73;;;8.18;95.59
61488;BME280;47351;53.326;-6.298;2022-11-21T05:58:34;98735.52;;;8.19;95.85
61488;BME280;47351;53.326;-6.298;2022-11-21T06:01:26;98725.69;;;8.21;96.21
61488;BME280;47351;53.326;-6.298;2022-11-21T06:04:35;98721.48;;;8.23;96.38
61488;BME280;47351;53.326;-6.298;2022-11-21T06:07:25;98710.45;;;8.23;96.44
61488;BME280;47351;53.326;-6.298;2022-11-21T06:10:16;98700.15;;;8.23;96.67
61488;BME280;47351;53.326;-6.298;2022-11-21T06:13:06;98696.45;;;8.23;96.75
61488;BME280;47351;53.326;-6.298;2022-11-21T06:16:11;98691.96;;;8.23;96.85
61488;BME280;47351;53.326;-6.298;2022-11-21T06:19:01;98692.17;;;8.23;96.93
61488;BME280;47351;53.326;-6.298;2022-11-21T06:21:52;98683.66;;;8.21;96.75
61488;BME280;47351;53.326;-6.298;2022-11-21T06:24:42;98682.95;;;8.20;96.74
61488;BME280;47351;53.326;-6.298;2022-11-21T06:27:31;98671.79;;;8.19;96.95
61488;BME280;47351;53.326;-6.298;2022-11-21T06:30:21;98669.92;;;8.16;96.87
61488;BME280;47351;53.326;-6.298;2022-11-21T06:33:11;98667.77;;;8.14;96.83
61488;BME280;47351;53.326;-6.298;2022-11-21T06:36:02;98668.31;;;8.11;96.93
61488;BME280;47351;53.326;-6.298;2022-11-21T06:38:53;98654.41;;;8.08;96.88
61488;BME280;47351;53.326;-6.298;2022-11-21T06:41:42;98648.60;;;8.06;96.97
61488;BME280;47351;53.326;-6.298;2022-11-21T06:44:38;98637.05;;;8.04;96.96
61488;BME280;47351;53.326;-6.298;2022-11-21T06:47:28;98639.02;;;8.01;97.00
61488;BME280;47351;53.326;-6.298;2022-11-21T06:50:17;98634.36;;;7.99;97.16
61488;BME280;47351;53.326;-6.298;2022-11-21T06:53:07;98631.61;;;7.99;97.18
61488;BME280;47351;53.326;-6.298;2022-11-21T06:55:59;98618.98;;;7.99;97.60
61488;BME280;47351;53.326;-6.298;2022-11-21T06:58:50;98610.75;;;7.99;97.94
61488;BME280;47351;53.326;-6.298;2022-11-21T07:01:40;98607.88;;;8.00;98.07
61488;BME280;47351;53.326;-6.298;2022-11-21T07:04:30;98589.34;;;7.99;98.43
61488;BME280;47351;53.326;-6.298;2022-11-21T07:07:20;98574.02;;;7.98;98.57
61488;BME280;47351;53.326;-6.298;2022-11-21T07:10:10;98565.92;;;7.97;98.55
61488;BME280;47351;53.326;-6.298;2022-11-21T07:13:00;98555.50;;;7.95;98.71
61488;BME280;47351;53.326;-6.298;2022-11-21T07:16:09;98538.67;;;7.92;98.74
61488;BME280;47351;53.326;-6.298;2022-11-21T07:19:02;98532.54;;;7.89;99.10
61488;BME280;47351;53.326;-6.298;2022-11-21T07:21:52;98531.80;;;7.88;99.53
61488;BME280;47351;53.326;-6.298;2022-11-21T07:24:45;98530.41;;;7.88;99.82
61488;BME280;47351;53.326;-6.298;2022-11-21T07:27:37;98519.23;;;7.90;99.91
61488;BME280;47351;53.326;-6.298;2022-11-21T07:30:27;98512.14;;;7.91;99.95
61488;BME280;47351;53.326;-6.298;2022-11-21T07:33:17;98515.30;;;7.92;99.71
61488;BME280;47351;53.326;-6.298;2022-11-21T07:36:07;98512.92;;;7.90;99.56
61488;BME280;47351;53.326;-6.298;2022-11-21T07:38:57;98505.49;;;7.89;99.58
61488;BME280;47351;53.326;-6.298;2022-11-21T07:41:47;98509.77;;;7.89;99.63
61488;BME280;47351;53.326;-6.298;2022-11-21T07:44:37;98494.39;;;7.89;99.91
61488;BME280;47351;53.326;-6.298;2022-11-21T07:47:26;98491.30;;;7.92;100.00
61488;BME280;47351;53.326;-6.298;2022-11-21T07:50:16;98488.52;;;7.94;100.00
61488;BME280;47351;53.326;-6.298;2022-11-21T07:53:11;98478.03;;;7.95;100.00
61488;BME280;47351;53.326;-6.298;2022-11-21T07:56:01;98464.59;;;7.95;100.00
61488;BME280;47351;53.326;-6.298;2022-11-21T07:58:56;98440.32;;;7.95;100.00
61488;BME280;47351;53.326;-6.298;2022-11-21T08:01:46;98428.53;;;7.94;100.00
61488;BME280;47351;53.326;-6.298;2022-11-21T08:04:37;98425.76;;;7.93;100.00
61488;BME280;47351;53.326;-6.298;2022-11-21T08:07:29;98418.09;;;7.94;100.00
61488;BME280;47351;53.326;-6.298;2022-11-21T08:10:19;98416.90;;;7.93;100.00
61488;BME280;47351;53.326;-6.298;2022-11-21T08:13:09;98406.37;;;7.93;100.00
61488;BME280;47351;53.326;-6.298;2022-11-21T08:16:03;98398.50;;;7.94;100.00
61488;BME280;47351;53.326;-6.298;2022-11-21T08:18:56;98389.34;;;7.95;100.00
61488;BME280;47351;53.326;-6.298;2022-11-21T08:21:46;98385.40;;;7.96;100.00
61488;BME280;47351;53.326;-6.298;2022-11-21T08:24:35;98377.74;;;7.98;100.00
61488;BME280;47351;53.326;-6.298;2022-11-21T08:27:25;98368.27;;;7.99;100.00
61488;BME280;47351;53.326;-6.298;2022-11-21T08:30:17;98372.27;;;8.03;100.00
61488;BME280;47351;53.326;-6.298;2022-11-21T08:33:07;98367.39;;;8.05;100.00
61488;BME280;47351;53.326;-6.298;2022-11-21T08:35:57;98368.34;;;8.06;100.00
61488;BME280;47351;53.326;-6.298;2022-11-21T08:38:47;98358.91;;;8.07;100.00
61488;BME280;47351;53.326;-6.298;2022-11-21T08:41:36;98356.14;;;8.08;100.00
61488;BME280;47351;53.326;-6.298;2022-11-21T08:44:44;98351.45;;;8.10;100.00
61488;BME280;47351;53.326;-6.298;2022-11-21T08:47:34;98350.44;;;8.12;100.00
61488;BME280;47351;53.326;-6.298;2022-11-21T08:50:24;98346.48;;;8.14;100.00
61488;BME280;47351;53.326;-6.298;2022-11-21T08:53:15;98334.42;;;8.14;100.00
61488;BME280;47351;53.326;-6.298;2022-11-21T08:56:05;98331.18;;;8.12;100.00
61488;BME280;47351;53.326;-6.298;2022-11-21T08:58:58;98327.62;;;8.13;100.00
61488;BME280;47351;53.326;-6.298;2022-11-21T09:01:47;98322.40;;;8.13;100.00
61488;BME280;47351;53.326;-6.298;2022-11-21T09:04:38;98313.88;;;8.13;100.00
61488;BME280;47351;53.326;-6.298;2022-11-21T09:07:28;98310.61;;;8.14;100.00
61488;BME280;47351;53.326;-6.298;2022-11-21T09:10:18;98304.50;;;8.14;100.00
61488;BME280;47351;53.326;-6.298;2022-11-21T09:13:07;98295.44;;;8.14;100.00
61488;BME280;47351;53.326;-6.298;2022-11-21T09:15:58;98290.92;;;8.15;100.00
61488;BME280;47351;53.326;-6.298;2022-11-21T09:19:12;98291.21;;;8.15;100.00
61488;BME280;47351;53.326;-6.298;2022-11-21T09:22:02;98285.30;;;8.16;100.00
61488;BME280;47351;53.326;-6.298;2022-11-21T09:24:55;98294.15;;;8.16;100.00
61488;BME280;47351;53.326;-6.298;2022-11-21T09:27:48;98298.95;;;8.16;100.00
61488;BME280;47351;53.326;-6.298;2022-11-21T09:30:39;98307.16;;;8.16;100.00
61488;BME280;47351;53.326;-6.298;2022-11-21T09:33:31;98312.77;;;8.16;100.00
61488;BME280;47351;53.326;-6.298;2022-11-21T09:36:20;98316.98;;;8.17;100.00
61488;BME280;47351;53.326;-6.298;2022-11-21T09:39:10;98312.95;;;8.18;100.00
61488;BME280;47351;53.326;-6.298;2022-11-21T09:42:15;98308.35;;;8.19;100.00
61488;BME280;47351;53.326;-6.298;2022-11-21T09:45:09;98304.67;;;8.20;100.00
61488;BME280;47351;53.326;-6.298;2022-11-21T09:48:04;98303.20;;;8.20;100.00
61488;BME280;47351;53.326;-6.298;2022-11-21T09:51:02;98314.19;;;8.20;100.00
61488;BME280;47351;53.326;-6.298;2022-11-21T09:53:58;98329.27;;;8.19;100.00
61488;BME280;47351;53.326;-6.298;2022-11-21T09:56:48;98334.70;;;8.11;100.00
61488;BME280;47351;53.326;-6.298;2022-11-21T09:59:44;98336.46;;;7.98;100.00
61488;BME280;47351;53.326;-6.298;2022-11-21T10:02:35;98343.17;;;7.76;100.00
61488;BME280;47351;53.326;-6.298;2022-11-21T10:05:32;98342.31;;;7.50;100.00
61488;BME280;47351;53.326;-6.298;2022-11-21T10:08:32;98333.96;;;7.18;99.98
61488;BME280;47351;53.326;-6.298;2022-11-21T10:11:36;98338.90;;;6.87;99.93
61488;BME280;47351;53.326;-6.298;2022-11-21T10:14:58;98334.89;;;6.63;100.00
61488;BME280;47351;53.326;-6.298;2022-11-21T10:22:09;98342.68;;;6.27;100.00
61488;BME280;47351;53.326;-6.298;2022-11-21T10:25:13;98348.19;;;6.14;100.00
61488;BME280;47351;53.326;-6.298;2022-11-21T10:28:06;98353.61;;;6.09;100.00
61488;BME280;47351;53.326;-6.298;2022-11-21T10:30:59;98356.95;;;6.04;100.00
61488;BME280;47351;53.326;-6.298;2022-11-21T10:33:54;98358.44;;;6.02;100.00
61488;BME280;47351;53.326;-6.298;2022-11-21T10:36:58;98362.59;;;6.00;100.00
61488;BME280;47351;53.326;-6.298;2022-11-21T10:39:49;98365.05;;;5.99;100.00
61488;BME280;47351;53.326;-6.298;2022-11-21T10:42:43;98363.46;;;5.99;100.00
61488;BME280;47351;53.326;-6.298;2022-11-21T10:45:43;98372.02;;;5.97;100.00
61488;BME280;47351;53.326;-6.298;2022-11-21T10:48:51;98376.77;;;5.97;100.00
61488;BME280;47351;53.326;-6.298;2022-11-21T10:52:22;98382.55;;;5.99;100.00
61488;BME280;47351;53.326;-6.298;2022-11-21T10:55:18;98388.53;;;6.01;100.00
61488;BME280;47351;53.326;-6.298;2022-11-21T10:58:16;98396.82;;;6.03;100.00
61488;BME280;47351;53.326;-6.298;2022-11-21T11:01:18;98403.19;;;6.02;100.00
61488;BME280;47351;53.326;-6.298;2022-11-21T11:04:17;98408.15;;;6.01;100.00
61488;BME280;47351;53.326;-6.298;2022-11-21T11:07:22;98417.70;;;6.01;100.00
61488;BME280;47351;53.326;-6.298;2022-11-21T11:10:22;98422.52;;;6.02;100.00
61488;BME280;47351;53.326;-6.298;2022-11-21T11:13:18;98422.17;;;6.02;100.00
61488;BME280;47351;53.326;-6.298;2022-11-21T11:16:43;98425.97;;;6.02;100.00
61488;BME280;47351;53.326;-6.298;2022-11-21T11:19:38;98425.96;;;6.00;100.00
61488;BME280;47351;53.326;-6.298;2022-11-21T11:22:30;98423.14;;;6.00;100.00
61488;BME280;47351;53.326;-6.298;2022-11-21T11:25:20;98419.46;;;6.00;100.00
61488;BME280;47351;53.326;-6.298;2022-11-21T11:28:12;98419.04;;;6.02;100.00
61488;BME280;47351;53.326;-6.298;2022-11-21T11:31:01;98420.59;;;6.06;100.00
61488;BME280;47351;53.326;-6.298;2022-11-21T11:33:53;98418.86;;;6.08;100.00
61488;BME280;47351;53.326;-6.298;2022-11-21T11:36:52;98414.72;;;6.10;100.00
61488;BME280;47351;53.326;-6.298;2022-11-21T11:39:52;98408.64;;;6.11;100.00
61488;BME280;47351;53.326;-6.298;2022-11-21T11:42:59;98405.67;;;6.13;100.00
61488;BME280;47351;53.326;-6.298;2022-11-21T11:46:34;98400.63;;;6.14;100.00
61488;BME280;47351;53.326;-6.298;2022-11-21T11:49:46;98393.58;;;6.15;100.00
61488;BME280;47351;53.326;-6.298;2022-11-21T11:53:02;98385.08;;;6.16;100.00
61488;BME280;47351;53.326;-6.298;2022-11-21T11:55:58;98378.72;;;6.18;100.00
61488;BME280;47351;53.326;-6.298;2022-11-21T11:58:52;98373.84;;;6.20;100.00
61488;BME280;47351;53.326;-6.298;2022-11-21T12:01:47;98367.95;;;6.23;100.00
61488;BME280;47351;53.326;-6.298;2022-11-21T12:04:44;98363.61;;;6.27;100.00
61488;BME280;47351;53.326;-6.298;2022-11-21T12:07:39;98355.97;;;6.30;100.00
61488;BME280;47351;53.326;-6.298;2022-11-21T12:10:54;98348.23;;;6.37;100.00
61488;BME280;47351;53.326;-6.298;2022-11-21T12:14:12;98341.92;;;6.41;100.00
61488;BME280;47351;53.326;-6.298;2022-11-21T12:17:32;98336.36;;;6.44;100.00
61488;BME280;47351;53.326;-6.298;2022-11-21T12:20:24;98339.13;;;6.47;100.00
61488;BME280;47351;53.326;-6.298;2022-11-21T12:23:17;98340.91;;;6.50;100.00
61488;BME280;47351;53.326;-6.298;2022-11-21T12:26:19;98337.05;;;6.51;100.00
61488;BME280;47351;53.326;-6.298;2022-11-21T12:29:22;98339.58;;;6.48;100.00
61488;BME280;47351;53.326;-6.298;2022-11-21T12:32:27;98343.84;;;6.40;100.00
61488;BME280;47351;53.326;-6.298;2022-11-21T12:39:28;98340.61;;;6.32;100.00
61488;BME280;47351;53.326;-6.298;2022-11-21T12:42:27;98335.71;;;6.37;100.00
61488;BME280;47351;53.326;-6.298;2022-11-21T12:45:45;98325.92;;;6.48;100.00
61488;BME280;47351;53.326;-6.298;2022-11-21T12:48:50;98323.99;;;6.55;100.00
61488;BME280;47351;53.326;-6.298;2022-11-21T12:52:14;98319.00;;;6.61;100.00
61488;BME280;47351;53.326;-6.298;2022-11-21T12:55:33;98312.86;;;6.70;100.00
61488;BME280;47351;53.326;-6.298;2022-11-21T12:58:28;98299.84;;;6.83;100.00
61488;BME280;47351;53.326;-6.298;2022-11-21T13:01:28;98306.52;;;6.95;100.00
61488;BME280;47351;53.326;-6.298;2022-11-21T13:04:27;98309.91;;;7.02;100.00
61488;BME280;47351;53.326;-6.298;2022-11-21T13:07:18;98314.09;;;7.07;100.00
61488;BME280;47351;53.326;-6.298;2022-11-21T13:10:13;98322.38;;;7.06;99.96
61488;BME280;47351;53.326;-6.298;2022-11-21T13:13:12;98321.83;;;7.10;99.84
61488;BME280;47351;53.326;-6.298;2022-11-21T13:16:04;98317.27;;;7.32;99.43
61488;BME280;47351;53.326;-6.298;2022-11-21T13:18:56;98309.00;;;7.47;98.81
61488;BME280;47351;53.326;-6.298;2022-11-21T13:21:47;98304.10;;;7.60;98.15
61488;BME280;47351;53.326;-6.298;2022-11-21T13:24:57;98299.23;;;7.74;97.37
61488;BME280;47351;53.326;-6.298;2022-11-21T13:27:47;98304.14;;;7.93;96.54
61488;BME280;47351;53.326;-6.298;2022-11-21T13:30:46;98302.39;;;8.13;95.97
61488;BME280;47351;53.326;-6.298;2022-11-21T13:33:52;98307.06;;;8.30;95.00
61488;BME280;47351;53.326;-6.298;2022-11-21T13:36:42;98310.23;;;8.44;94.72
61488;BME280;47351;53.326;-6.298;2022-11-21T13:39:38;98313.66;;;8.53;94.78
61488;BME280;47351;53.326;-6.298;2022-11-21T13:42:30;98315.22;;;8.56;94.33
61488;BME280;47351;53.326;-6.298;2022-11-21T13:46:09;98313.34;;;8.62;93.81
61488;BME280;47351;53.326;-6.298;2022-11-21T13:49:11;98311.48;;;8.58;93.45
61488;BME280;47351;53.326;-6.298;2022-11-21T13:52:11;98309.48;;;8.59;92.77
61488;BME280;47351;53.326;-6.298;2022-11-21T13:55:17;98305.25;;;8.63;91.62
61488;BME280;47351;53.326;-6.298;2022-11-21T13:58:20;98302.22;;;8.72;91.36
61488;BME280;47351;53.326;-6.298;2022-11-21T14:01:37;98302.17;;;8.84;91.40
61488;BME280;47351;53.326;-6.298;2022-11-21T14:05:01;98305.09;;;8.93;91.39
61488;BME280;47351;53.326;-6.298;2022-11-21T14:07:53;98310.33;;;9.05;90.94
61488;BME280;47351;53.326;-6.298;2022-11-21T14:11:18;98318.20;;;9.09;89.63
61488;BME280;47351;53.326;-6.298;2022-11-21T14:14:09;98320.31;;;9.01;89.33
61488;BME280;47351;53.326;-6.298;2022-11-21T14:17:16;98325.20;;;8.92;89.43
61488;BME280;47351;53.326;-6.298;2022-11-21T14:20:16;98322.77;;;8.86;89.87
61488;BME280;47351;53.326;-6.298;2022-11-21T14:23:14;98326.35;;;8.82;89.93
61488;BME280;47351;53.326;-6.298;2022-11-21T14:26:13;98326.23;;;8.77;89.66
61488;BME280;47351;53.326;-6.298;2022-11-21T14:29:18;98326.69;;;8.74;89.69
61488;BME280;47351;53.326;-6.298;2022-11-21T14:32:14;98328.98;;;8.74;89.87
61488;BME280;47351;53.326;-6.298;2022-11-21T14:35:19;98329.96;;;8.73;89.64
61488;BME280;47351;53.326;-6.298;2022-11-21T14:38:11;98333.24;;;8.71;89.43
61488;BME280;47351;53.326;-6.298;2022-11-21T14:41:24;98334.77;;;8.71;88.99
61488;BME280;47351;53.326;-6.298;2022-11-21T14:44:20;98334.98;;;8.73;89.12
61488;BME280;47351;53.326;-6.298;2022-11-21T14:47:14;98327.50;;;8.76;89.60
61488;BME280;47351;53.326;-6.298;2022-11-21T14:50:22;98328.42;;;8.74;89.41
61488;BME280;47351;53.326;-6.298;2022-11-21T14:53:12;98323.60;;;8.70;89.10
61488;BME280;47351;53.326;-6.298;2022-11-21T14:56:02;98316.98;;;8.68;89.13
61488;BME280;47351;53.326;-6.298;2022-11-21T14:58:54;98309.14;;;8.65;89.01
61488;BME280;47351;53.326;-6.298;2022-11-21T15:01:54;98304.96;;;8.55;88.72
61488;BME280;47351;53.326;-6.298;2022-11-21T15:04:46;98301.59;;;8.43;88.46
61488;BME280;47351;53.326;-6.298;2022-11-21T15:07:40;98297.40;;;8.32;88.01
61488;BME280;47351;53.326;-6.298;2022-11-21T15:10:42;98299.55;;;8.22;88.31
61488;BME280;47351;53.326;-6.298;2022-11-21T15:13:48;98302.35;;;8.14;88.72
61488;BME280;47351;53.326;-6.298;2022-11-21T15:17:00;98305.24;;;8.05;88.83
61488;BME280;47351;53.326;-6.298;2022-11-21T15:20:14;98310.52;;;7.98;89.07
61488;BME280;47351;53.326;-6.298;2022-11-21T15:23:05;98318.01;;;7.94;89.31
61488;BME280;47351;53.326;-6.298;2022-11-21T15:25:58;98317.51;;;7.91;89.36
61488;BME280;47351;53.326;-6.298;2022-11-21T15:29:18;98313.92;;;7.87;89.42
61488;BME280;47351;53.326;-6.298;2022-11-21T15:32:15;98317.27;;;7.84;89.65
61488;BME280;47351;53.326;-6.298;2022-11-21T15:35:37;98312.49;;;7.79;89.68
61488;BME280;47351;53.326;-6.298;2022-11-21T15:38:30;98314.08;;;7.64;89.64
61488;BME280;47351;53.326;-6.298;2022-11-21T15:41:31;98318.97;;;7.52;89.80
61488;BME280;47351;53.326;-6.298;2022-11-21T15:44:22;98320.04;;;7.44;90.50
61488;BME280;47351;53.326;-6.298;2022-11-21T15:47:15;98321.98;;;7.35;90.53
61488;BME280;47351;53.326;-6.298;2022-11-21T15:50:06;98321.54;;;7.27;90.18
61488;BME280;47351;53.326;-6.298;2022-11-21T15:52:55;98323.88;;;7.15;89.13
61488;BME280;47351;53.326;-6.298;2022-11-21T15:55:45;98328.59;;;7.03;88.78
61488;BME280;47351;53.326;-6.298;2022-11-21T15:58:35;98330.79;;;6.91;88.76
61488;BME280;47351;53.326;-6.298;2022-11-21T16:01:26;98340.09;;;6.82;88.75
61488;BME280;47351;53.326;-6.298;2022-11-21T16:04:20;98340.94;;;6.71;88.73
61488;BME280;47351;53.326;-6.298;2022-11-21T16:07:14;98339.80;;;6.62;88.62
61488;BME280;47351;53.326;-6.298;2022-11-21T16:10:05;98347.78;;;6.55;88.61
61488;BME280;47351;53.326;-6.298;2022-11-21T16:13:03;98358.32;;;6.48;88.79